Time,TemperatureF,DewpointF,PressureIn,WindDirection,WindDirectionDegrees,WindSpeedMPH,WindSpeedGustMPH,Humidity,HourlyPrecipIn,Conditions,Clouds,dailyrainin,SoftwareType,DateUTC
2013-01-21 00:00:00,73.8,61.7,30.03,ESE,120,0.0,0.0,66,0.00,,SCT120,0.00,VWS V14.01,2013-01-21 04:00:00,
2013-01-21 00:05:00,73.8,61.7,30.03,ESE,120,0.0,0.0,66,0.00,,SCT120,0.00,VWS V14.01,2013-01-21 04:05:00,
2013-01-21 00:10:00,73.6,61.1,30.03,ESE,120,0.0,0.0,65,0.00,,SCT120,0.00,VWS V14.01,2013-01-21 04:10:00,
2013-01-21 00:15:00,73.2,60.3,30.03,ESE,120,0.0,0.0,64,0.00,,SCT120,0.00,VWS V14.01,2013-01-21 04:15:00,
2013-01-21 00:20:00,72.9,60.8,30.03,ESE,120,0.0,0.0,66,0.00,,SCT120,0.00,VWS V14.01,2013-01-21 04:20:00,
2013-01-21 00:25:00,72.7,61.1,30.03,ESE,120,0.0,0.0,67,0.00,,SCT120,0.00,VWS V14.01,2013-01-21 04:25:00,
2013-01-21 00:30:00,72.7,61.5,30.03,ESE,120,0.0,0.0,68,0.00,,SCT120,0.00,VWS V14.01,2013-01-21 04:30:00,
2013-01-21 00:35:00,72.7,61.9,30.03,ESE,120,0.0,0.0,69,0.00,,SCT120,0.00,VWS V14.01,2013-01-21 04:35:00,
2013-01-21 00:40:00,73.0,62.3,30.03,ESE,120,0.0,0.0,69,0.00,,SCT120,0.00,VWS V14.01,2013-01-21 04:40:00,
2013-01-21 00:45:00,73.2,62.5,30.03,ESE,120,0.0,0.0,69,0.00,,SCT120,0.00,VWS V14.01,2013-01-21 04:45:00,
2013-01-21 00:50:00,73.2,62.0,30.03,ESE,120,0.0,0.0,68,0.00,,SCT120,0.00,VWS V14.01,2013-01-21 04:50:00,
2013-01-21 00:55:00,72.7,61.1,30.03,ESE,120,0.0,0.0,67,0.00,,SCT120,0.00,VWS V14.01,2013-01-21 04:55:00,
2013-01-21 01:00:00,72.5,60.9,30.03,ESE,120,0.0,0.0,67,0.00,,SCT120,0.00,VWS V14.01,2013-01-21 05:00:00,
2013-01-21 01:01:00,72.5,60.9,30.03,ESE,120,0.0,0.0,67,0.00,,SCT120,0.00,VWS V14.01,2013-01-21 05:01:00,
2013-01-21 01:03:00,72.3,60.8,30.03,ESE,120,0.0,0.0,67,0.00,,SCT120,0.00,VWS V14.01,2013-01-21 05:03:00,
2013-01-21 01:08:00,72.1,61.4,30.03,ESE,120,0.0,0.0,69,0.00,,SCT120,0.00,VWS V14.01,2013-01-21 05:08:00,
2013-01-21 01:13:00,72.0,61.2,30.03,ESE,120,0.0,0.0,69,0.00,,SCT120,0.00,VWS V14.01,2013-01-21 05:13:00,
2013-01-21 01:18:00,72.1,61.8,30.03,ESE,120,0.0,0.0,70,0.00,,SCT120,0.00,VWS V14.01,2013-01-21 05:18:00,
2013-01-21 01:23:00,72.0,61.7,30.00,ESE,120,0.0,0.0,70,0.00,,SCT120,0.00,VWS V14.01,2013-01-21 05:23:00,
2013-01-21 01:28:00,71.8,61.5,30.00,ESE,120,0.0,0.0,70,0.00,,SCT120,0.00,VWS V14.01,2013-01-21 05:28:00,
2013-01-21 01:33:00,71.8,61.5,30.00,ESE,120,0.0,0.0,70,0.00,,SCT120,0.00,VWS V14.01,2013-01-21 05:33:00,
2013-01-21 01:38:00,71.8,61.5,30.00,ESE,120,0.0,0.0,70,0.00,,SCT120,0.00,VWS V14.01,2013-01-21 05:38:00,
2013-01-21 01:43:00,72.0,61.7,30.00,ESE,120,0.0,0.0,70,0.00,,SCT120,0.00,VWS V14.01,2013-01-21 05:43:00,
2013-01-21 01:48:00,72.0,62.0,30.00,ESE,120,0.0,0.0,71,0.00,,SCT120,0.00,VWS V14.01,2013-01-21 05:48:00,
2013-01-21 01:53:00,71.8,61.5,30.00,ESE,120,0.0,0.0,70,0.00,,SCT120,0.00,VWS V14.01,2013-01-21 05:53:00,
2013-01-21 01:58:00,71.4,61.1,30.00,ESE,120,0.0,0.0,70,0.00,,SCT120,0.00,VWS V14.01,2013-01-21 05:58:00,
2013-01-21 02:03:00,71.2,61.0,30.00,ESE,120,0.0,0.0,70,0.00,,SCT120,0.00,VWS V14.01,2013-01-21 06:03:00,
2013-01-21 02:08:00,71.4,61.1,30.00,ESE,120,0.0,0.0,70,0.00,,SCT120,0.00,VWS V14.01,2013-01-21 06:08:00,
2013-01-21 02:13:00,71.4,61.5,30.00,ESE,120,0.0,0.0,71,0.00,,SCT120,0.00,VWS V14.01,2013-01-21 06:13:00,
2013-01-21 02:18:00,71.4,61.5,30.00,ESE,120,0.0,0.0,71,0.00,,SCT120,0.00,VWS V14.01,2013-01-21 06:18:00,
2013-01-21 02:23:00,71.6,61.7,29.97,ESE,120,0.0,0.0,71,0.00,,SCT120,0.00,VWS V14.01,2013-01-21 06:23:00,
2013-01-21 02:28:00,71.4,61.9,29.97,ESE,120,0.0,0.0,72,0.00,,SCT120,0.00,VWS V14.01,2013-01-21 06:28:00,
2013-01-21 02:33:00,71.4,61.9,29.97,ESE,123,0.0,0.0,72,0.00,,SCT120,0.00,VWS V14.01,2013-01-21 06:33:00,
2013-01-21 02:38:00,71.4,61.9,29.97,ESE,123,0.0,0.0,72,0.00,,SCT120,0.00,VWS V14.01,2013-01-21 06:38:00,
2013-01-21 02:43:00,71.4,61.9,29.97,ESE,123,0.0,0.0,72,0.00,,SCT120,0.00,VWS V14.01,2013-01-21 06:43:00,
2013-01-21 02:48:00,71.4,61.9,29.97,ESE,123,0.0,0.0,72,0.00,,SCT120,0.00,VWS V14.01,2013-01-21 06:48:00,
2013-01-21 02:53:00,71.2,62.2,29.97,ESE,123,0.0,0.0,73,0.00,,SCT120,0.00,VWS V14.01,2013-01-21 06:53:00,
2013-01-21 02:58:00,71.1,62.4,29.97,ESE,123,0.0,0.0,74,0.00,,SCT120,0.00,VWS V14.01,2013-01-21 06:58:00,
2013-01-21 03:03:00,70.9,62.2,29.97,ESE,123,0.0,0.0,74,0.00,,SCT120,0.00,VWS V14.01,2013-01-21 07:03:00,
2013-01-21 03:08:00,70.9,62.6,29.97,ESE,123,0.0,0.0,75,0.00,,SCT120,0.00,VWS V14.01,2013-01-21 07:08:00,
2013-01-21 03:13:00,70.9,62.6,29.97,ESE,123,0.0,0.0,75,0.00,,SCT120,0.00,VWS V14.01,2013-01-21 07:13:00,
2013-01-21 03:18:00,71.1,62.7,29.97,ESE,123,0.0,0.0,75,0.00,,SCT120,0.00,VWS V14.01,2013-01-21 07:18:00,
2013-01-21 03:23:00,70.9,62.6,29.97,ESE,123,0.0,0.0,75,0.00,,SCT120,0.00,VWS V14.01,2013-01-21 07:23:00,
2013-01-21 03:28:00,70.9,62.6,29.97,ESE,123,0.0,0.0,75,0.00,,SCT120,0.00,VWS V14.01,2013-01-21 07:28:00,
2013-01-21 03:33:00,70.9,62.6,29.97,ESE,123,0.0,0.0,75,0.00,,SCT120,0.00,VWS V14.01,2013-01-21 07:33:00,
2013-01-21 03:38:00,70.7,62.4,29.97,ESE,123,0.0,0.0,75,0.00,,SCT120,0.00,VWS V14.01,2013-01-21 07:38:00,
2013-01-21 03:43:00,70.7,62.8,29.97,ESE,123,0.0,0.0,76,0.00,,SCT120,0.00,VWS V14.01,2013-01-21 07:43:00,
2013-01-21 03:48:00,70.9,63.3,29.97,ESE,123,0.0,0.0,77,0.00,,SCT120,0.00,VWS V14.01,2013-01-21 07:48:00,
2013-01-21 03:53:00,71.2,63.7,29.94,SE,133,0.0,0.0,77,0.00,,SCT120,0.00,VWS V14.01,2013-01-21 07:53:00,
2013-01-21 03:58:00,71.2,64.0,29.94,SE,133,0.0,0.0,78,0.00,,SCT120,0.00,VWS V14.01,2013-01-21 07:58:00,
2013-01-21 04:03:00,71.1,63.5,29.94,SE,132,0.0,0.0,77,0.00,,SCT120,0.00,VWS V14.01,2013-01-21 08:03:00,
2013-01-21 04:08:00,70.9,63.3,29.97,SE,133,0.0,0.0,77,0.00,,SCT120,0.00,VWS V14.01,2013-01-21 08:08:00,
2013-01-21 04:13:00,70.7,63.1,29.97,SE,133,0.0,0.0,77,0.00,,SCT120,0.00,VWS V14.01,2013-01-21 08:13:00,
2013-01-21 04:18:00,70.7,63.1,29.97,SE,133,0.0,0.0,77,0.00,,SCT120,0.00,VWS V14.01,2013-01-21 08:18:00,
2013-01-21 04:23:00,70.9,63.3,29.97,SE,133,0.0,0.0,77,0.00,,SCT120,0.00,VWS V14.01,2013-01-21 08:23:00,
2013-01-21 04:28:00,70.7,63.1,29.97,SE,133,0.0,0.0,77,0.00,,SCT120,0.00,VWS V14.01,2013-01-21 08:28:00,
2013-01-21 04:33:00,70.5,63.3,29.97,SE,132,0.0,0.0,78,0.00,,SCT120,0.00,VWS V14.01,2013-01-21 08:33:00,
2013-01-21 04:38:00,70.3,63.2,29.97,SE,133,0.0,0.0,78,0.00,,SCT120,0.00,VWS V14.01,2013-01-21 08:38:00,
2013-01-21 04:43:00,70.5,63.3,29.97,SE,133,0.0,0.0,78,0.00,,SCT120,0.00,VWS V14.01,2013-01-21 08:43:00,
2013-01-21 04:48:00,70.5,63.7,29.97,SE,133,0.0,0.0,79,0.00,,SCT120,0.00,VWS V14.01,2013-01-21 08:48:00,
2013-01-21 04:53:00,70.3,63.5,29.97,SE,133,0.0,0.0,79,0.00,,SCT120,0.00,VWS V14.01,2013-01-21 08:53:00,
2013-01-21 04:58:00,70.5,63.7,29.97,SE,133,0.0,0.0,79,0.00,,SCT120,0.00,VWS V14.01,2013-01-21 08:58:00,
2013-01-21 05:03:00,70.7,63.9,29.97,SW,232,0.0,0.0,79,0.00,,SCT120,0.00,VWS V14.01,2013-01-21 09:03:00,
2013-01-21 05:08:00,70.7,63.9,29.97,SW,231,0.0,0.0,79,0.00,,SCT120,0.00,VWS V14.01,2013-01-21 09:08:00,
2013-01-21 05:13:00,70.5,63.7,29.97,West,269,0.0,3.1,79,0.00,,SCT120,0.00,VWS V14.01,2013-01-21 09:13:00,
2013-01-21 05:18:00,70.5,63.7,29.97,West,269,0.0,3.1,79,0.00,,SCT120,0.00,VWS V14.01,2013-01-21 09:18:00,
2013-01-21 05:23:00,70.5,63.7,29.97,West,269,0.0,0.0,79,0.00,,SCT120,0.00,VWS V14.01,2013-01-21 09:23:00,
2013-01-21 05:28:00,70.3,63.5,29.97,West,269,0.0,0.0,79,0.00,,SCT120,0.00,VWS V14.01,2013-01-21 09:28:00,
2013-01-21 05:33:00,70.5,63.7,29.97,West,269,0.0,0.0,79,0.00,,SCT120,0.00,VWS V14.01,2013-01-21 09:33:00,
2013-01-21 05:38:00,70.5,63.7,29.97,West,269,0.0,0.0,79,0.00,,SCT120,0.00,VWS V14.01,2013-01-21 09:38:00,
2013-01-21 05:43:00,70.5,63.7,29.97,SSE,161,0.0,0.0,79,0.00,,SCT120,0.00,VWS V14.01,2013-01-21 09:43:00,
2013-01-21 05:48:00,70.5,63.7,29.97,East,97,2.2,2.2,79,0.00,,SCT120,0.00,VWS V14.01,2013-01-21 09:48:00,
2013-01-21 05:53:00,70.2,63.3,29.97,East,97,0.0,2.2,79,0.00,,SCT120,0.00,VWS V14.01,2013-01-21 09:53:00,
2013-01-21 05:58:00,70.0,63.2,29.97,East,97,2.7,2.7,79,0.00,,SCT120,0.00,VWS V14.01,2013-01-21 09:58:00,
2013-01-21 06:03:00,69.6,62.8,29.97,East,97,0.0,0.0,79,0.00,,SCT120,0.00,VWS V14.01,2013-01-21 10:03:00,
2013-01-21 06:08:00,69.4,62.7,29.97,North,357,0.0,0.0,79,0.00,,SCT120,0.00,VWS V14.01,2013-01-21 10:08:00,
2013-01-21 06:13:00,69.4,62.7,29.97,North,357,0.0,0.0,79,0.00,,SCT120,0.00,VWS V14.01,2013-01-21 10:13:00,
2013-01-21 06:18:00,69.3,62.8,29.97,ESE,107,0.0,0.0,80,0.00,,SCT120,0.00,VWS V14.01,2013-01-21 10:18:00,
2013-01-21 06:23:00,69.3,62.8,29.97,ESE,107,0.0,0.0,80,0.00,,SCT120,0.00,VWS V14.01,2013-01-21 10:23:00,
2013-01-21 06:28:00,69.1,62.7,29.97,ESE,107,0.0,0.0,80,0.00,,SCT120,0.00,VWS V14.01,2013-01-21 10:28:00,
2013-01-21 06:33:00,69.1,62.7,29.97,ESE,107,0.0,0.0,80,0.00,,SCT120,0.00,VWS V14.01,2013-01-21 10:33:00,
2013-01-21 06:38:00,68.9,62.5,29.97,ESE,107,0.0,0.0,80,0.00,,SCT120,0.00,VWS V14.01,2013-01-21 10:38:00,
2013-01-21 06:43:00,68.9,62.5,29.97,ESE,106,0.0,0.0,80,0.00,,SCT120,0.00,VWS V14.01,2013-01-21 10:43:00,
2013-01-21 06:48:00,68.7,62.3,29.97,ESE,107,0.0,0.0,80,0.00,,SCT120,0.00,VWS V14.01,2013-01-21 10:48:00,
2013-01-21 06:53:00,68.7,62.3,29.97,ESE,107,0.0,0.0,80,0.00,,SCT120,0.00,VWS V14.01,2013-01-21 10:53:00,
2013-01-21 06:58:00,68.7,62.3,29.97,ESE,107,0.0,0.0,80,0.00,,SCT120,0.00,VWS V14.01,2013-01-21 10:58:00,
2013-01-21 07:03:00,68.7,62.3,29.97,ESE,106,0.0,0.0,80,0.00,,SCT120,0.00,VWS V14.01,2013-01-21 11:03:00,
2013-01-21 07:08:00,68.7,62.7,29.97,ESE,107,0.0,0.0,81,0.00,,SCT120,0.00,VWS V14.01,2013-01-21 11:08:00,
2013-01-21 07:13:00,68.7,62.7,29.97,ESE,107,0.0,0.0,81,0.00,,SCT120,0.00,VWS V14.01,2013-01-21 11:13:00,
2013-01-21 07:18:00,68.9,62.8,29.97,ESE,108,0.0,0.0,81,0.00,,SCT120,0.00,VWS V14.01,2013-01-21 11:18:00,
2013-01-21 07:23:00,68.9,62.8,29.97,ESE,106,0.0,0.0,81,0.00,,SCT120,0.00,VWS V14.01,2013-01-21 11:23:00,
2013-01-21 07:28:00,69.1,63.0,29.97,SSE,150,4.0,4.0,81,0.00,,SCT120,0.00,VWS V14.01,2013-01-21 11:28:00,
2013-01-21 07:33:00,69.3,63.2,29.97,SSE,147,2.2,4.0,81,0.00,,SCT120,0.00,VWS V14.01,2013-01-21 11:33:00,
2013-01-21 07:38:00,69.4,63.4,29.97,SSE,147,3.6,4.0,81,0.00,,SCT120,0.00,VWS V14.01,2013-01-21 11:38:00,
2013-01-21 07:43:00,69.8,63.7,29.97,SSE,147,3.6,3.6,81,0.00,,SCT120,0.00,VWS V14.01,2013-01-21 11:43:00,
2013-01-21 07:48:00,70.0,63.9,29.97,SSE,168,0.0,3.6,81,0.00,,SCT120,0.00,VWS V14.01,2013-01-21 11:48:00,
2013-01-21 07:53:00,70.3,64.2,29.97,SSE,147,0.0,3.6,81,0.00,,SCT120,0.00,VWS V14.01,2013-01-21 11:53:00,
2013-01-21 07:58:00,70.5,64.1,29.97,SE,146,0.0,3.6,80,0.00,,SCT120,0.00,VWS V14.01,2013-01-21 11:58:00,
2013-01-21 08:04:00,71.1,64.6,29.97,ESE,116,0.0,0.0,80,0.00,,SCT120,0.00,VWS V14.01,2013-01-21 12:04:00,
2013-01-21 08:09:00,71.4,64.9,29.97,ESE,116,0.0,0.0,80,0.00,,SCT120,0.00,VWS V14.01,2013-01-21 12:09:00,
2013-01-21 08:14:00,71.8,64.9,29.97,ESE,116,0.0,0.0,79,0.00,,SCT120,0.00,VWS V14.01,2013-01-21 12:14:00,
2013-01-21 08:19:00,72.1,65.3,29.97,ESE,116,0.0,0.0,79,0.00,,SCT120,0.00,VWS V14.01,2013-01-21 12:19:00,
2013-01-21 08:24:00,72.5,64.9,29.97,ESE,116,0.0,0.0,77,0.00,,SCT120,0.00,VWS V14.01,2013-01-21 12:24:00,
2013-01-21 08:29:00,73.0,65.4,29.97,ESE,116,0.0,0.0,77,0.00,,SCT120,0.00,VWS V14.01,2013-01-21 12:29:00,
2013-01-21 08:34:00,73.2,65.2,29.97,ESE,116,0.0,0.0,76,0.00,,SCT120,0.00,VWS V14.01,2013-01-21 12:34:00,
2013-01-21 08:39:00,73.9,65.1,29.97,ESE,116,0.0,0.0,74,0.00,,SCT120,0.00,VWS V14.01,2013-01-21 12:39:00,
2013-01-21 08:44:00,74.3,63.9,29.97,ESE,116,0.0,0.0,70,0.00,,SCT120,0.00,VWS V14.01,2013-01-21 12:44:00,
2013-01-21 08:49:00,75.0,63.8,29.97,ESE,116,0.0,0.0,68,0.00,,SCT120,0.00,VWS V14.01,2013-01-21 12:49:00,
2013-01-21 08:54:00,75.6,63.4,30.00,ESE,116,0.0,0.0,66,0.00,,SCT120,0.00,VWS V14.01,2013-01-21 12:54:00,
2013-01-21 08:59:00,75.9,62.4,30.00,ESE,116,0.0,0.0,63,0.00,,SCT120,0.00,VWS V14.01,2013-01-21 12:59:00,
2013-01-21 09:04:00,76.3,61.9,30.00,SSE,159,2.2,3.6,61,0.00,,SCT120,0.00,VWS V14.01,2013-01-21 13:04:00,
2013-01-21 09:09:00,76.3,59.5,30.00,South,172,3.1,3.6,56,0.00,,SCT120,0.00,VWS V14.01,2013-01-21 13:09:00,
2013-01-21 09:14:00,76.8,56.8,30.00,South,184,4.0,4.0,50,0.00,,SCT120,0.00,VWS V14.01,2013-01-21 13:14:00,
2013-01-21 09:19:00,77.2,56.0,30.00,SSW,195,3.6,4.0,48,0.00,,SCT120,0.00,VWS V14.01,2013-01-21 13:19:00,
2013-01-21 09:24:00,77.7,54.7,30.00,SE,145,3.1,3.6,45,0.00,,SCT120,0.00,VWS V14.01,2013-01-21 13:24:00,
2013-01-21 09:29:00,78.1,53.2,30.00,South,169,4.0,4.0,42,0.00,,SCT120,0.00,VWS V14.01,2013-01-21 13:29:00,
2013-01-21 09:34:00,78.4,53.5,30.00,South,180,0.0,4.0,42,0.00,,SCT120,0.00,VWS V14.01,2013-01-21 13:34:00,
2013-01-21 09:39:00,78.8,52.5,30.00,South,169,3.6,4.0,40,0.00,,SCT120,0.00,VWS V14.01,2013-01-21 13:39:00,
2013-01-21 09:44:00,79.0,51.9,30.00,South,175,2.7,3.6,39,0.00,,SCT120,0.00,VWS V14.01,2013-01-21 13:44:00,
2013-01-21 09:49:00,79.3,51.5,30.00,SE,136,4.9,4.9,38,0.00,,SCT120,0.00,VWS V14.01,2013-01-21 13:49:00,
2013-01-21 09:54:00,79.7,51.2,30.00,SSW,193,3.1,4.9,37,0.00,,SCT120,0.00,VWS V14.01,2013-01-21 13:54:00,
2013-01-21 09:59:00,80.2,50.1,30.00,East,86,0.0,4.9,35,0.00,,SCT120,0.00,VWS V14.01,2013-01-21 13:59:00,
2013-01-21 10:04:00,80.2,49.3,30.00,South,173,3.1,4.9,34,0.00,,SCT120,0.00,VWS V14.01,2013-01-21 14:04:00,
2013-01-21 10:09:00,81.0,49.2,30.03,SSE,166,4.0,5.4,33,0.00,,SCT120,0.00,VWS V14.01,2013-01-21 14:09:00,
2013-01-21 10:14:00,81.5,48.8,30.03,SSE,159,5.8,5.8,32,0.00,,SCT120,0.00,VWS V14.01,2013-01-21 14:14:00,
2013-01-21 10:19:00,82.0,47.6,30.03,SSE,165,3.6,5.8,30,0.00,,SCT120,0.00,VWS V14.01,2013-01-21 14:19:00,
2013-01-21 10:24:00,81.9,47.4,30.00,SSE,165,7.6,7.6,30,0.00,,SCT120,0.00,VWS V14.01,2013-01-21 14:24:00,
2013-01-21 10:29:00,81.1,46.8,30.00,SSE,154,3.1,7.6,30,0.00,,SCT120,0.00,VWS V14.01,2013-01-21 14:29:00,
2013-01-21 10:34:00,80.6,47.2,30.00,South,187,5.8,7.6,31,0.00,,SCT120,0.00,VWS V14.01,2013-01-21 14:34:00,
2013-01-21 10:39:00,80.4,48.7,30.00,SSW,207,6.7,7.6,33,0.00,,SCT120,0.00,VWS V14.01,2013-01-21 14:39:00,
2013-01-21 10:44:00,80.4,48.7,30.00,SSW,212,0.0,6.7,33,0.00,,SCT120,0.00,VWS V14.01,2013-01-21 14:44:00,
2013-01-21 10:49:00,80.4,48.7,30.00,South,174,3.1,6.7,33,0.00,,SCT120,0.00,VWS V14.01,2013-01-21 14:49:00,
2013-01-21 10:54:00,80.4,48.7,30.03,South,191,0.0,6.7,33,0.00,,SCT120,0.00,VWS V14.01,2013-01-21 14:54:00,
2013-01-21 10:59:00,80.8,49.0,30.03,South,185,0.0,0.0,33,0.00,,SCT120,0.00,VWS V14.01,2013-01-21 14:59:00,
2013-01-21 11:04:00,80.8,48.2,30.03,SSE,147,2.2,3.6,32,0.00,,SCT120,0.00,VWS V14.01,2013-01-21 15:04:00,
2013-01-21 11:09:00,80.8,47.4,30.00,ESE,122,3.1,5.4,31,0.00,,SCT120,0.00,VWS V14.01,2013-01-21 15:09:00,
2013-01-21 11:14:00,80.8,48.2,30.00,SE,131,3.6,5.4,32,0.00,,SCT120,0.00,VWS V14.01,2013-01-21 15:14:00,
2013-01-21 11:19:00,81.0,48.4,30.00,ESE,104,0.0,5.4,32,0.00,,SCT120,0.00,VWS V14.01,2013-01-21 15:19:00,
2013-01-21 11:24:00,81.5,48.0,30.00,NE,50,4.9,4.9,31,0.00,,SCT120,0.00,VWS V14.01,2013-01-21 15:24:00,
2013-01-21 11:29:00,82.0,48.5,30.00,SSE,155,3.1,4.9,31,0.00,,SCT120,0.00,VWS V14.01,2013-01-21 15:29:00,
2013-01-21 11:34:00,82.6,48.0,30.00,ENE,68,2.7,5.4,30,0.00,,SCT120,0.00,VWS V14.01,2013-01-21 15:34:00,
2013-01-21 11:39:00,82.0,47.6,30.00,NE,53,4.0,4.9,30,0.00,,SCT120,0.00,VWS V14.01,2013-01-21 15:39:00,
2013-01-21 11:44:00,82.0,46.7,30.00,NNE,31,4.9,4.9,29,0.00,,SCT120,0.00,VWS V14.01,2013-01-21 15:44:00,
2013-01-21 11:49:00,81.9,46.5,30.00,ENE,66,3.1,4.9,29,0.00,,SCT120,0.00,VWS V14.01,2013-01-21 15:49:00,
2013-01-21 11:54:00,81.9,46.5,30.00,SE,132,7.2,7.2,29,0.00,,SCT120,0.00,VWS V14.01,2013-01-21 15:54:00,
2013-01-21 11:59:00,82.0,47.6,30.00,East,100,2.7,2.7,30,0.00,,SCT120,0.00,VWS V14.01,2013-01-21 15:59:00,
2013-01-21 12:04:00,82.2,47.7,30.00,ESE,105,0.0,3.6,30,0.00,,SCT120,0.00,VWS V14.01,2013-01-21 16:04:00,
2013-01-21 12:09:00,82.0,48.5,30.00,SSE,158,6.3,6.3,31,0.00,,SCT120,0.00,VWS V14.01,2013-01-21 16:09:00,
2013-01-21 12:14:00,82.0,49.3,30.00,SE,145,2.7,6.3,32,0.00,,SCT120,0.00,VWS V14.01,2013-01-21 16:14:00,
2013-01-21 12:19:00,82.0,49.3,30.00,SSE,163,2.7,2.7,32,0.00,,SCT120,0.00,VWS V14.01,2013-01-21 16:19:00,
2013-01-21 12:24:00,82.2,48.6,30.00,SSE,148,2.7,4.0,31,0.00,,SCT120,0.00,VWS V14.01,2013-01-21 16:24:00,
2013-01-21 12:29:00,83.1,46.7,30.00,SSW,200,0.0,4.0,28,0.00,,SCT120,0.00,VWS V14.01,2013-01-21 16:29:00,
2013-01-21 12:34:00,82.8,46.4,30.00,NE,53,2.7,4.0,28,0.00,,SCT120,0.00,VWS V14.01,2013-01-21 16:34:00,
2013-01-21 12:39:00,82.8,47.3,30.00,East,100,3.1,4.0,29,0.00,,SCT120,0.00,VWS V14.01,2013-01-21 16:39:00,
2013-01-21 12:44:00,83.5,47.0,30.00,East,100,3.1,4.0,28,0.00,,SCT120,0.00,VWS V14.01,2013-01-21 16:44:00,
2013-01-21 12:49:00,83.3,47.8,30.00,East,79,3.6,4.0,29,0.00,,SCT120,0.00,VWS V14.01,2013-01-21 16:49:00,
2013-01-21 12:54:00,83.3,47.8,29.97,East,96,3.6,4.0,29,0.00,,SCT120,0.00,VWS V14.01,2013-01-21 16:54:00,
2013-01-21 12:59:00,82.8,47.3,29.97,East,96,3.6,4.0,29,0.00,,SCT120,0.00,VWS V14.01,2013-01-21 16:59:00,
2013-01-21 13:04:00,82.2,47.7,29.97,ENE,64,5.4,5.4,30,0.00,,SCT120,0.00,VWS V14.01,2013-01-21 17:04:00,
2013-01-21 13:09:00,81.7,48.1,29.97,East,82,4.0,5.4,31,0.00,,SCT120,0.00,VWS V14.01,2013-01-21 17:09:00,
2013-01-21 13:14:00,81.3,48.7,29.97,SE,138,4.0,5.4,32,0.00,,SCT120,0.00,VWS V14.01,2013-01-21 17:14:00,
2013-01-21 13:19:00,81.1,52.4,29.97,SSE,150,4.5,4.5,37,0.00,,SCT120,0.00,VWS V14.01,2013-01-21 17:19:00,
2013-01-21 13:24:00,80.8,54.9,29.97,SSE,168,0.0,4.5,41,0.00,,SCT120,0.00,VWS V14.01,2013-01-21 17:24:00,
2013-01-21 13:29:00,80.8,56.9,29.97,SSE,153,3.1,4.5,44,0.00,,SCT120,0.00,VWS V14.01,2013-01-21 17:29:00,
2013-01-21 13:34:00,81.0,56.4,29.97,SSE,164,0.0,4.9,43,0.00,,SCT120,0.00,VWS V14.01,2013-01-21 17:34:00,
2013-01-21 13:39:00,81.7,55.7,29.94,SE,132,2.7,2.7,41,0.00,,SCT120,0.00,VWS V14.01,2013-01-21 17:39:00,
2013-01-21 13:44:00,82.8,54.6,29.94,SSE,156,3.1,4.9,38,0.00,,SCT120,0.00,VWS V14.01,2013-01-21 17:44:00,
2013-01-21 13:49:00,83.7,50.7,29.94,SE,126,2.7,4.9,32,0.00,,SCT120,0.00,VWS V14.01,2013-01-21 17:49:00,
2013-01-21 13:54:00,84.2,49.4,29.97,SSE,164,3.6,5.8,30,0.00,,SCT120,0.00,VWS V14.01,2013-01-21 17:54:00,
2013-01-21 13:59:00,84.9,49.2,29.97,SSE,162,3.6,3.6,29,0.00,,SCT120,0.00,VWS V14.01,2013-01-21 17:59:00,
2013-01-21 14:04:00,85.5,48.7,29.97,SSE,150,5.4,5.4,28,0.00,,SCT120,0.00,VWS V14.01,2013-01-21 18:04:00,
2013-01-21 14:09:00,85.8,47.0,29.94,SSE,164,4.0,5.8,26,0.00,,SCT120,0.00,VWS V14.01,2013-01-21 18:09:00,
2013-01-21 14:14:00,86.2,44.1,29.94,SSE,147,7.2,7.2,23,0.00,,SCT120,0.00,VWS V14.01,2013-01-21 18:14:00,
2013-01-21 14:19:00,85.8,44.9,29.94,South,191,3.1,3.1,24,0.00,,SCT120,0.00,VWS V14.01,2013-01-21 18:19:00,
2013-01-21 14:24:00,85.5,44.6,29.94,SE,143,4.9,7.6,24,0.00,,SCT120,0.00,VWS V14.01,2013-01-21 18:24:00,
2013-01-21 14:29:00,85.3,45.5,29.94,ENE,58,3.1,7.6,25,0.00,,SCT120,0.00,VWS V14.01,2013-01-21 18:29:00,
2013-01-21 14:34:00,84.9,44.1,29.94,SE,127,2.7,7.6,24,0.00,,SCT120,0.00,VWS V14.01,2013-01-21 18:34:00,
2013-01-21 14:39:00,84.7,44.0,29.94,ENE,61,2.7,7.6,24,0.00,,SCT120,0.00,VWS V14.01,2013-01-21 18:39:00,
2013-01-21 14:44:00,84.4,45.8,29.94,ESE,120,2.7,3.6,26,0.00,,SCT120,0.00,VWS V14.01,2013-01-21 18:44:00,
2013-01-21 14:49:00,84.0,48.4,29.94,SSE,168,3.1,3.6,29,0.00,,SCT120,0.00,VWS V14.01,2013-01-21 18:49:00,
2013-01-21 14:54:00,83.8,48.2,29.94,ENE,68,3.1,3.6,29,0.00,,SCT120,0.00,VWS V14.01,2013-01-21 18:54:00,
2013-01-21 14:59:00,83.5,47.9,29.94,ESE,114,3.6,3.6,29,0.00,,SCT120,0.00,VWS V14.01,2013-01-21 18:59:00,
2013-01-21 15:04:00,84.0,44.5,29.94,ESE,113,2.7,5.4,25,0.00,,SCT120,0.00,VWS V14.01,2013-01-21 19:04:00,
2013-01-21 15:09:00,85.1,43.2,29.91,SE,140,4.0,5.4,23,0.00,,SCT120,0.00,VWS V14.01,2013-01-21 19:09:00,
2013-01-21 15:14:00,86.0,42.8,29.91,SE,126,4.0,5.4,22,0.00,,SCT120,0.00,VWS V14.01,2013-01-21 19:14:00,
2013-01-21 15:19:00,86.5,42.0,29.91,SE,127,3.1,3.1,21,0.00,,SCT120,0.00,VWS V14.01,2013-01-21 19:19:00,
2013-01-21 15:24:00,87.1,42.5,29.91,SSE,167,4.9,4.9,21,0.00,,SCT120,0.00,VWS V14.01,2013-01-21 19:24:00,
2013-01-21 15:29:00,87.1,41.2,29.91,East,93,3.6,5.8,20,0.00,,SCT120,0.00,VWS V14.01,2013-01-21 19:29:00,
2013-01-21 15:34:00,86.2,40.5,29.91,ESE,118,5.4,6.3,20,0.00,,SCT120,0.00,VWS V14.01,2013-01-21 19:34:00,
2013-01-21 15:39:00,85.6,42.5,29.94,ENE,75,2.7,2.7,22,0.00,,SCT120,0.00,VWS V14.01,2013-01-21 19:39:00,
2013-01-21 15:44:00,84.9,45.2,29.94,SE,124,2.7,4.0,25,0.00,,SCT120,0.00,VWS V14.01,2013-01-21 19:44:00,
2013-01-21 15:49:00,84.2,47.6,29.94,East,100,3.1,5.4,28,0.00,,SCT120,0.00,VWS V14.01,2013-01-21 19:49:00,
2013-01-21 15:54:00,83.8,48.2,29.91,ESE,114,3.1,5.4,29,0.00,,SCT120,0.00,VWS V14.01,2013-01-21 19:54:00,
2013-01-21 15:59:00,83.5,48.8,29.91,East,101,2.7,2.7,30,0.00,,SCT120,0.00,VWS V14.01,2013-01-21 19:59:00,
2013-01-21 16:04:00,83.1,48.5,29.91,East,101,2.7,2.7,30,0.00,,SCT120,0.00,VWS V14.01,2013-01-21 20:04:00,
2013-01-21 16:09:00,83.1,48.5,29.91,East,89,0.0,2.7,30,0.00,,SCT120,0.00,VWS V14.01,2013-01-21 20:09:00,
2013-01-21 16:14:00,83.7,49.0,29.91,NE,49,2.7,4.9,30,0.00,,SCT120,0.00,VWS V14.01,2013-01-21 20:14:00,
2013-01-21 16:19:00,84.0,49.3,29.91,NE,35,2.7,2.7,30,0.00,,SCT120,0.00,VWS V14.01,2013-01-21 20:19:00,
2013-01-21 16:24:00,83.5,47.9,29.94,ESE,106,3.6,3.6,29,0.00,,SCT120,0.00,VWS V14.01,2013-01-21 20:24:00,
2013-01-21 16:29:00,83.8,47.3,29.94,East,98,3.6,4.9,28,0.00,,SCT120,0.00,VWS V14.01,2013-01-21 20:29:00,
2013-01-21 16:34:00,84.6,45.9,29.94,East,95,0.0,4.9,26,0.00,,SCT120,0.00,VWS V14.01,2013-01-21 20:34:00,
2013-01-21 16:39:00,84.6,44.9,29.94,East,95,0.0,4.9,25,0.00,,SCT120,0.00,VWS V14.01,2013-01-21 20:39:00,
2013-01-21 16:44:00,84.2,44.6,29.94,East,95,0.0,0.0,25,0.00,,SCT120,0.00,VWS V14.01,2013-01-21 20:44:00,
2013-01-21 16:49:00,83.8,45.3,29.94,SSE,147,3.6,5.8,26,0.00,,SCT120,0.00,VWS V14.01,2013-01-21 20:49:00,
2013-01-21 16:54:00,83.8,46.3,29.94,South,176,5.4,5.8,27,0.00,,SCT120,0.00,VWS V14.01,2013-01-21 20:54:00,
2013-01-21 16:59:00,83.8,47.3,29.94,South,191,2.2,5.8,28,0.00,,SCT120,0.00,VWS V14.01,2013-01-21 20:59:00,
2013-01-21 17:04:00,83.8,46.3,29.94,SSE,157,3.6,5.8,27,0.00,,SCT120,0.00,VWS V14.01,2013-01-21 21:04:00,
2013-01-21 17:09:00,84.0,45.5,29.94,SE,146,7.6,7.6,26,0.00,,SCT120,0.00,VWS V14.01,2013-01-21 21:09:00,
2013-01-21 17:14:00,84.4,45.8,29.94,SSE,166,2.7,7.6,26,0.00,,SCT120,0.00,VWS V14.01,2013-01-21 21:14:00,
2013-01-21 17:19:00,84.6,45.9,29.94,SE,137,3.6,3.6,26,0.00,,SCT120,0.00,VWS V14.01,2013-01-21 21:19:00,
2013-01-21 17:24:00,84.6,44.9,29.94,SE,144,3.1,3.6,25,0.00,,SCT120,0.00,VWS V14.01,2013-01-21 21:24:00,
2013-01-21 17:29:00,84.4,44.8,29.94,SSW,194,4.9,7.2,25,0.00,,SCT120,0.00,VWS V14.01,2013-01-21 21:29:00,
2013-01-21 17:34:00,84.0,45.5,29.94,SSE,161,3.1,7.2,26,0.00,,SCT120,0.00,VWS V14.01,2013-01-21 21:34:00,
2013-01-21 17:39:00,83.8,44.3,29.94,SSW,192,4.9,7.2,25,0.00,,SCT120,0.00,VWS V14.01,2013-01-21 21:39:00,
2013-01-21 17:44:00,83.5,46.0,29.94,SSW,192,4.9,4.9,27,0.00,,SCT120,0.00,VWS V14.01,2013-01-21 21:44:00,
2013-01-21 17:49:00,83.5,47.0,29.94,SSE,154,3.1,4.9,28,0.00,,SCT120,0.00,VWS V14.01,2013-01-21 21:49:00,
2013-01-21 17:54:00,83.3,47.8,29.94,South,169,2.2,4.9,29,0.00,,SCT120,0.00,VWS V14.01,2013-01-21 21:54:00,
2013-01-21 17:59:00,83.1,47.6,29.94,South,169,2.2,4.9,29,0.00,,SCT120,0.00,VWS V14.01,2013-01-21 21:59:00,
2013-01-21 18:04:00,82.8,47.3,29.94,South,169,2.2,2.2,29,0.00,,SCT120,0.00,VWS V14.01,2013-01-21 22:04:00,
2013-01-21 18:09:00,82.4,47.9,29.94,South,169,2.2,2.2,30,0.00,,SCT120,0.00,VWS V14.01,2013-01-21 22:09:00,
2013-01-21 18:14:00,82.0,47.6,29.94,South,169,2.2,2.2,30,0.00,,SCT120,0.00,VWS V14.01,2013-01-21 22:14:00,
2013-01-21 18:19:00,81.9,47.4,29.94,South,169,2.2,2.2,30,0.00,,SCT120,0.00,VWS V14.01,2013-01-21 22:19:00,
2013-01-21 18:24:00,81.7,48.1,29.94,South,169,2.2,2.2,31,0.00,,SCT120,0.00,VWS V14.01,2013-01-21 22:24:00,
2013-01-21 18:29:00,81.7,48.1,29.94,South,169,2.2,2.2,31,0.00,,SCT120,0.00,VWS V14.01,2013-01-21 22:29:00,
2013-01-21 18:34:00,81.5,48.0,29.94,South,169,2.2,2.2,31,0.00,,SCT120,0.00,VWS V14.01,2013-01-21 22:34:00,
2013-01-21 18:39:00,81.3,47.8,29.94,South,169,2.2,2.2,31,0.00,,SCT120,0.00,VWS V14.01,2013-01-21 22:39:00,
2013-01-21 18:44:00,81.1,48.5,29.94,South,169,2.2,2.2,32,0.00,,SCT120,0.00,VWS V14.01,2013-01-21 22:44:00,
2013-01-21 18:49:00,81.1,49.3,29.94,South,169,2.2,2.2,33,0.00,,SCT120,0.00,VWS V14.01,2013-01-21 22:49:00,
2013-01-21 18:54:00,81.0,50.0,29.97,South,169,2.2,2.2,34,0.00,,SCT120,0.00,VWS V14.01,2013-01-21 22:54:00,
2013-01-21 18:59:00,81.0,50.8,29.97,South,169,2.2,2.2,35,0.00,,SCT120,0.00,VWS V14.01,2013-01-21 22:59:00,
2013-01-21 19:04:00,80.8,51.4,29.97,South,169,2.2,2.2,36,0.00,,SCT120,0.00,VWS V14.01,2013-01-21 23:04:00,
2013-01-21 19:09:00,80.4,52.5,29.97,South,169,2.2,2.2,38,0.00,,SCT120,0.00,VWS V14.01,2013-01-21 23:09:00,
2013-01-21 19:14:00,80.2,52.3,29.97,South,169,2.2,2.2,38,0.00,,SCT120,0.00,VWS V14.01,2013-01-21 23:14:00,
2013-01-21 19:19:00,80.1,52.9,29.97,South,169,2.2,2.2,39,0.00,,SCT120,0.00,VWS V14.01,2013-01-21 23:19:00,
2013-01-21 19:24:00,79.9,53.4,29.97,South,169,2.2,2.2,40,0.00,,SCT120,0.00,VWS V14.01,2013-01-21 23:24:00,
2013-01-21 19:29:00,79.7,53.3,29.97,East,92,0.0,2.2,40,0.00,,SCT120,0.00,VWS V14.01,2013-01-21 23:29:00,
2013-01-21 19:34:00,79.5,53.1,29.97,East,93,0.0,2.2,40,0.00,,SCT120,0.00,VWS V14.01,2013-01-21 23:34:00,
2013-01-21 19:39:00,79.3,53.6,29.97,East,93,0.0,2.2,41,0.00,,SCT120,0.00,VWS V14.01,2013-01-21 23:39:00,
2013-01-21 19:44:00,79.2,53.5,29.97,East,93,0.0,0.0,41,0.00,,SCT120,0.00,VWS V14.01,2013-01-21 23:44:00,
2013-01-21 19:49:00,79.0,54.0,29.97,East,93,0.0,0.0,42,0.00,,SCT120,0.00,VWS V14.01,2013-01-21 23:49:00,
2013-01-21 19:54:00,78.8,53.8,30.00,East,93,0.0,0.0,42,0.00,,SCT120,0.00,VWS V14.01,2013-01-21 23:54:00,
2013-01-21 19:59:00,78.8,54.4,30.00,East,93,0.0,0.0,43,0.00,,SCT120,0.00,VWS V14.01,2013-01-21 23:59:00,
2013-01-21 20:04:00,78.6,54.9,30.00,East,93,0.0,0.0,44,0.00,,SCT120,0.00,VWS V14.01,2013-01-22 00:04:00,
2013-01-21 20:09:00,78.6,54.9,30.00,East,93,0.0,0.0,44,0.00,,SCT120,0.00,VWS V14.01,2013-01-22 00:09:00,
2013-01-21 20:14:00,78.4,54.7,30.00,East,93,0.0,0.0,44,0.00,,SCT120,0.00,VWS V14.01,2013-01-22 00:14:00,
2013-01-21 20:19:00,78.4,55.4,30.00,East,93,0.0,0.0,45,0.00,,SCT120,0.00,VWS V14.01,2013-01-22 00:19:00,
2013-01-21 20:24:00,78.3,55.2,30.00,ENE,71,0.0,0.0,45,0.00,,SCT120,0.00,VWS V14.01,2013-01-22 00:24:00,
2013-01-21 20:29:00,77.9,55.5,30.00,ENE,71,0.0,0.0,46,0.00,,SCT120,0.00,VWS V14.01,2013-01-22 00:29:00,
2013-01-21 20:34:00,77.7,55.3,30.00,ENE,71,0.0,0.0,46,0.00,,SCT120,0.00,VWS V14.01,2013-01-22 00:34:00,
2013-01-21 20:39:00,77.5,55.7,30.00,ENE,71,0.0,0.0,47,0.00,,SCT120,0.00,VWS V14.01,2013-01-22 00:39:00,
2013-01-21 20:44:00,77.5,56.3,30.00,ENE,71,0.0,0.0,48,0.00,,SCT120,0.00,VWS V14.01,2013-01-22 00:44:00,
2013-01-21 20:49:00,77.4,56.7,30.00,ENE,71,0.0,0.0,49,0.00,,SCT120,0.00,VWS V14.01,2013-01-22 00:49:00,
2013-01-21 20:54:00,77.4,57.8,30.00,ENE,71,0.0,0.0,51,0.00,,SCT120,0.00,VWS V14.01,2013-01-22 00:54:00,
2013-01-21 20:59:00,77.0,58.0,30.00,SE,144,0.0,0.0,52,0.00,,SCT120,0.00,VWS V14.01,2013-01-22 00:59:00,
2013-01-21 21:04:00,76.6,58.8,30.00,SE,144,0.0,0.0,54,0.00,,SCT120,0.00,VWS V14.01,2013-01-22 01:04:00,
2013-01-21 21:09:00,76.3,60.4,30.00,SE,144,0.0,0.0,58,0.00,,SCT120,0.00,VWS V14.01,2013-01-22 01:09:00,
2013-01-21 21:14:00,76.1,61.2,30.00,SE,144,0.0,0.0,60,0.00,,SCT120,0.00,VWS V14.01,2013-01-22 01:14:00,
2013-01-21 21:19:00,76.1,62.2,30.00,SE,144,0.0,0.0,62,0.00,,SCT120,0.00,VWS V14.01,2013-01-22 01:19:00,
2013-01-21 21:24:00,76.1,62.6,30.03,SE,143,0.0,0.0,63,0.00,,SCT120,0.00,VWS V14.01,2013-01-22 01:24:00,
2013-01-21 21:29:00,76.3,62.8,30.03,SE,143,0.0,0.0,63,0.00,,SCT120,0.00,VWS V14.01,2013-01-22 01:29:00,
2013-01-21 21:34:00,76.1,62.6,30.03,SE,144,0.0,0.0,63,0.00,,SCT120,0.00,VWS V14.01,2013-01-22 01:34:00,
2013-01-21 21:39:00,75.7,61.8,30.03,SE,144,0.0,0.0,62,0.00,,SCT120,0.00,VWS V14.01,2013-01-22 01:39:00,
2013-01-21 21:44:00,75.7,62.3,30.03,East,96,0.0,0.0,63,0.00,,SCT120,0.00,VWS V14.01,2013-01-22 01:44:00,
2013-01-21 21:49:00,75.7,62.7,30.03,East,96,0.0,0.0,64,0.00,,SCT120,0.00,VWS V14.01,2013-01-22 01:49:00,
2013-01-21 21:54:00,75.7,62.7,30.03,East,98,0.0,0.0,64,0.00,,SCT120,0.00,VWS V14.01,2013-01-22 01:54:00,
2013-01-21 21:59:00,75.6,62.1,30.03,East,99,0.0,0.0,63,0.00,,SCT120,0.00,VWS V14.01,2013-01-22 01:59:00,
2013-01-21 22:04:00,75.6,62.1,30.03,East,91,0.0,0.0,63,0.00,,SCT120,0.00,VWS V14.01,2013-01-22 02:04:00,
2013-01-21 22:09:00,75.4,61.9,30.03,East,92,0.0,0.0,63,0.00,,SCT120,0.00,VWS V14.01,2013-01-22 02:09:00,
2013-01-21 22:14:00,75.2,61.8,30.03,East,92,0.0,0.0,63,0.00,,SCT120,0.00,VWS V14.01,2013-01-22 02:14:00,
2013-01-21 22:19:00,75.2,62.2,30.03,East,92,0.0,0.0,64,0.00,,SCT120,0.00,VWS V14.01,2013-01-22 02:19:00,
2013-01-21 22:24:00,75.0,62.0,30.00,East,92,0.0,0.0,64,0.00,,SCT120,0.00,VWS V14.01,2013-01-22 02:24:00,
2013-01-21 22:29:00,74.7,62.1,30.00,East,92,0.0,0.0,65,0.00,,SCT120,0.00,VWS V14.01,2013-01-22 02:29:00,
2013-01-21 22:35:00,74.5,62.4,30.00,East,93,0.0,0.0,66,0.00,,SCT120,0.00,VWS V14.01,2013-01-22 02:35:00,
2013-01-21 22:40:00,74.3,62.6,30.03,East,92,0.0,0.0,67,0.00,,SCT120,0.00,VWS V14.01,2013-01-22 02:40:00,
2013-01-21 22:45:00,74.3,62.6,30.03,East,93,0.0,0.0,67,0.00,,SCT120,0.00,VWS V14.01,2013-01-22 02:45:00,
2013-01-21 22:50:00,74.1,62.5,30.03,East,99,0.0,0.0,67,0.00,,SCT120,0.00,VWS V14.01,2013-01-22 02:50:00,
2013-01-21 22:55:00,73.9,62.7,30.03,ESE,113,0.0,0.0,68,0.00,,SCT120,0.00,VWS V14.01,2013-01-22 02:55:00,
2013-01-21 23:00:00,74.1,62.9,30.03,SSE,148,0.0,0.0,68,0.00,,SCT120,0.00,VWS V14.01,2013-01-22 03:00:00,
2013-01-21 23:05:00,73.9,62.7,30.03,SSE,148,0.0,0.0,68,0.00,,SCT120,0.00,VWS V14.01,2013-01-22 03:05:00,
2013-01-21 23:10:00,73.8,62.5,30.03,SSE,148,0.0,0.0,68,0.00,,SCT120,0.00,VWS V14.01,2013-01-22 03:10:00,
2013-01-21 23:15:00,73.8,63.0,30.03,SSE,148,0.0,0.0,69,0.00,,SCT120,0.00,VWS V14.01,2013-01-22 03:15:00,
2013-01-21 23:20:00,73.6,62.8,30.03,SSE,148,0.0,0.0,69,0.00,,SCT120,0.00,VWS V14.01,2013-01-22 03:20:00,
2013-01-21 23:24:00,73.6,62.8,30.03,SSE,148,0.0,0.0,69,0.00,,SCT120,0.00,VWS V14.01,2013-01-22 03:24:00,
2013-01-21 23:29:00,73.2,62.5,30.03,SSE,148,0.0,0.0,69,0.00,,SCT120,0.00,VWS V14.01,2013-01-22 03:29:00,
2013-01-21 23:34:00,73.2,62.9,30.03,SSE,148,0.0,0.0,70,0.00,,SCT120,0.00,VWS V14.01,2013-01-22 03:34:00,
2013-01-21 23:39:00,73.2,62.9,30.03,SSE,148,0.0,0.0,70,0.00,,SCT120,0.00,VWS V14.01,2013-01-22 03:39:00,
2013-01-21 23:44:00,73.2,62.9,30.03,SSE,148,0.0,0.0,70,0.00,,SCT120,0.00,VWS V14.01,2013-01-22 03:44:00,
2013-01-21 23:49:00,73.2,62.9,30.03,SSE,150,0.0,0.0,70,0.00,,SCT120,0.00,VWS V14.01,2013-01-22 03:49:00,
2013-01-21 23:54:00,73.0,62.7,30.03,SSE,150,0.0,0.0,70,0.00,,SCT120,0.00,VWS V14.01,2013-01-22 03:54:00,
2013-01-21 23:59:00,73.0,62.7,30.03,ESE,104,0.0,0.0,70,0.00,,SCT120,0.00,VWS V14.01,2013-01-22 03:59:00,